Time;durP1;ratioP1;P1;durP2;ratioP2;P2;SDS_P1;SDS_P2;PMS_P1;PMS_P2;Temp;Humidity;BMP_temperature;BMP_pressure;BME280_temperature;BME280_humidity;BME280_pressure;Samples;Min_cycle;Max_cycle;Signal;HPM_P1;HPM_P2
2022/08/01 00:02:10;;;;;;;1.48;1.38;;;;;;;29.80;33.75;96740.25;5091007;28;20035;-35
2022/08/01 00:04:35;;;;;;;1.35;1.25;;;;;;;29.82;33.74;96734.88;5093589;28;20500;-35
2022/08/01 00:07:01;;;;;;;1.50;1.40;;;;;;;29.78;33.95;96736.53;5094988;28;20081;-35
2022/08/01 00:09:26;;;;;;;2.50;1.20;;;;;;;29.80;33.59;96736.72;5095500;28;20058;-35
2022/08/01 00:11:52;;;;;;;1.48;1.38;;;;;;;29.75;34.11;96727.19;5095107;28;20028;-35
2022/08/01 00:14:17;;;;;;;2.35;1.25;;;;;;;29.80;33.79;96729.06;5095088;28;20028;-36
2022/08/01 00:16:43;;;;;;;1.40;1.30;;;;;;;29.76;33.55;96725.91;5095025;28;20028;-35
2022/08/01 00:19:08;;;;;;;1.27;1.17;;;;;;;29.76;33.66;96725.91;5094979;28;20384;-35
2022/08/01 00:21:34;;;;;;;2.20;1.30;;;;;;;29.75;33.89;96721.59;5095002;28;20074;-35
2022/08/01 00:23:59;;;;;;;2.25;1.40;;;;;;;29.76;33.84;96727.94;5094797;28;20028;-35
2022/08/01 00:26:25;;;;;;;2.05;1.38;;;;;;;29.74;33.69;96722.91;5094828;28;20026;-35
2022/08/01 00:28:50;;;;;;;1.48;1.38;;;;;;;29.75;33.71;96720.84;5094715;28;20099;-36
2022/08/01 00:31:16;;;;;;;1.45;1.35;;;;;;;29.71;34.00;96728.81;5093885;28;20016;-35
2022/08/01 00:33:41;;;;;;;1.25;1.15;;;;;;;29.77;33.54;96724.59;5095083;28;20047;-35
2022/08/01 00:36:07;;;;;;;1.40;1.30;;;;;;;29.72;33.85;96721.94;5094725;28;20024;-35
2022/08/01 00:38:32;;;;;;;1.60;1.40;;;;;;;29.75;33.74;96720.84;5094356;28;20024;-35
2022/08/01 00:40:58;;;;;;;1.88;1.50;;;;;;;29.73;33.56;96712.25;5095108;28;20072;-35
2022/08/01 00:43:23;;;;;;;1.40;1.23;;;;;;;29.73;33.35;96718.59;5094673;28;20046;-34
2022/08/01 00:45:49;;;;;;;1.52;1.13;;;;;;;29.76;33.67;96708.38;5094185;28;20410;-35
2022/08/01 00:48:17;;;;;;;1.40;1.30;;;;;;;29.77;33.97;96718.25;5094730;28;20454;-35
2022/08/01 00:50:43;;;;;;;1.38;1.20;;;;;;;29.77;33.92;96709.88;5094446;28;20027;-35
2022/08/01 00:53:09;;;;;;;1.83;1.23;;;;;;;29.76;33.39;96708.38;5094253;28;20393;-35
2022/08/01 00:55:34;;;;;;;1.48;1.38;;;;;;;29.71;33.76;96718.41;5094250;28;20492;-35
2022/08/01 00:58:00;;;;;;;1.20;1.10;;;;;;;29.74;33.71;96705.38;5094653;28;20027;-36
2022/08/01 01:00:26;;;;;;;1.60;1.50;;;;;;;29.70;33.46;96716.16;5094251;28;20526;-35
2022/08/01 01:02:52;;;;;;;1.40;1.30;;;;;;;29.71;33.50;96707.22;5094296;28;20081;-35
2022/08/01 01:05:17;;;;;;;1.40;1.30;;;;;;;29.73;33.46;96712.25;5094123;28;20043;-35
2022/08/01 01:08:01;;;;;;;1.38;1.20;;;;;;;29.75;33.45;96704.06;5094000;28;20024;-35
2022/08/01 01:10:54;;;;;;;1.40;1.30;;;;;;;29.72;33.76;96711.50;5094101;28;20027;-36
2022/08/01 01:13:38;;;;;;;1.42;1.33;;;;;;;29.69;33.48;96706.25;5094240;28;20443;-35
2022/08/01 01:16:13;;;;;;;1.85;1.20;;;;;;;29.69;33.80;96714.66;5093925;28;20073;-35
2022/08/01 01:18:43;;;;;;;1.33;1.23;;;;;;;29.67;33.33;96715.94;5092875;28;20099;-35
2022/08/01 01:21:18;;;;;;;1.10;1.00;;;;;;;29.70;33.33;96710.56;5093776;28;20028;-35
2022/08/01 01:24:11;;;;;;;1.45;1.35;;;;;;;29.72;33.62;96716.34;5093997;28;20020;-35
2022/08/01 01:26:51;;;;;;;1.20;1.10;;;;;;;29.68;33.42;96708.31;5093929;28;20028;-35
2022/08/01 01:29:20;;;;;;;1.58;1.48;;;;;;;29.70;33.39;96713.34;5093688;28;20024;-34
2022/08/01 01:31:51;;;;;;;1.85;1.60;;;;;;;29.70;33.35;96713.34;5093788;28;20473;-35
2022/08/01 01:34:19;;;;;;;1.92;1.40;;;;;;;29.69;33.49;96709.06;5093498;28;20028;-36
2022/08/01 01:36:47;;;;;;;1.70;1.20;;;;;;;29.69;33.29;96706.25;5093634;28;20024;-35
2022/08/01 01:39:15;;;;;;;1.42;1.33;;;;;;;29.67;33.31;96711.66;5093544;28;20024;-35
2022/08/01 01:41:42;;;;;;;1.30;1.20;;;;;;;29.71;32.91;96712.06;5093432;28;20047;-35
2022/08/01 01:44:13;;;;;;;1.75;1.20;;;;;;;29.71;33.16;96710.00;5093522;28;20462;-35
2022/08/01 01:46:40;;;;;;;1.40;1.30;;;;;;;29.67;33.18;96703.28;5093445;28;20055;-35
2022/08/01 01:49:10;;;;;;;1.42;1.20;;;;;;;29.70;33.30;96697.31;5093520;28;20027;-35
2022/08/01 01:51:38;;;;;;;1.30;1.20;;;;;;;29.68;33.24;96711.09;5093548;28;20027;-35
2022/08/01 01:54:04;;;;;;;1.63;1.08;;;;;;;29.68;33.14;96705.50;5093573;28;20024;-35
2022/08/01 01:56:31;;;;;;;1.35;1.20;;;;;;;29.67;32.82;96704.75;5093521;28;20474;-35
2022/08/01 01:59:02;;;;;;;1.33;1.23;;;;;;;29.67;33.31;96715.22;5093570;28;20400;-36
2022/08/01 02:01:30;;;;;;;1.20;1.10;;;;;;;29.62;33.29;96708.47;5093795;28;20023;-35
2022/08/01 02:04:15;;;;;;;1.42;1.33;;;;;;;29.63;33.02;96704.38;5093400;28;20125;-35
2022/08/01 02:06:42;;;;;;;1.40;1.30;;;;;;;29.66;33.40;96705.34;5093373;28;20020;-36
2022/08/01 02:09:09;;;;;;;1.33;1.23;;;;;;;29.63;33.16;96704.38;5093492;28;20073;-35
2022/08/01 02:11:38;;;;;;;1.30;1.20;;;;;;;29.67;33.09;96708.88;5093286;28;20111;-35
2022/08/01 02:14:08;;;;;;;1.45;1.20;;;;;;;29.64;33.15;96705.13;5093318;28;20089;-35
2022/08/01 02:16:54;;;;;;;1.30;1.20;;;;;;;29.63;32.89;96715.56;5093633;28;20410;-35
2022/08/01 02:19:20;;;;;;;1.50;1.25;;;;;;;29.60;33.06;96710.31;5089353;28;20040;-36
2022/08/01 02:22:00;;;;;;;1.30;1.20;;;;;;;29.65;33.16;96703.84;5093242;28;20043;-35
2022/08/01 02:24:37;;;;;;;1.27;1.17;;;;;;;29.62;33.13;96708.47;5093283;28;20028;-35
2022/08/01 02:27:08;;;;;;;1.30;1.20;;;;;;;29.64;33.13;96697.50;5093117;28;20085;-37
2022/08/01 02:30:05;;;;;;;1.33;1.23;;;;;;;29.60;33.10;96705.47;5093610;28;20088;-35
2022/08/01 02:32:36;;;;;;;1.25;1.00;;;;;;;29.61;33.13;96701.38;5088627;28;20062;-35
2022/08/01 02:35:07;;;;;;;1.40;1.30;;;;;;;29.60;32.90;96710.31;5093196;28;20047;-35
2022/08/01 02:37:36;;;;;;;1.40;1.30;;;;;;;29.58;33.13;96702.47;5093084;28;20042;-36
2022/08/01 02:40:04;;;;;;;1.30;1.20;;;;;;;29.64;32.97;96700.28;5091771;28;20024;-35
2022/08/01 02:42:30;;;;;;;1.23;1.13;;;;;;;29.63;33.09;96709.22;5093617;28;20031;-35
2022/08/01 02:44:57;;;;;;;1.48;1.38;;;;;;;29.61;33.11;96704.16;5092832;28;20390;-35
2022/08/01 02:47:24;;;;;;;1.20;1.10;;;;;;;29.59;33.20;96701.16;5093226;28;20028;-35
2022/08/01 02:49:52;;;;;;;1.40;1.30;;;;;;;29.58;33.03;96702.47;5093012;28;20027;-35
2022/08/01 02:52:20;;;;;;;1.40;1.30;;;;;;;29.59;32.93;96711.59;5092954;28;20024;-35
2022/08/01 02:54:48;;;;;;;1.20;1.10;;;;;;;29.62;32.82;96707.72;5096248;28;20073;-35
2022/08/01 02:57:16;;;;;;;1.20;1.05;;;;;;;29.61;33.02;96700.63;5096709;28;20024;-35
2022/08/01 02:59:44;;;;;;;1.42;1.25;;;;;;;29.61;33.03;96703.41;5096418;28;20061;-35
2022/08/01 03:02:10;;;;;;;1.30;1.20;;;;;;;29.62;32.92;96699.34;5096662;28;20028;-35
2022/08/01 03:04:38;;;;;;;1.35;1.20;;;;;;;29.59;33.03;96703.97;5096606;28;20458;-36
2022/08/01 03:07:06;;;;;;;1.50;1.40;;;;;;;29.61;32.75;96709.75;5096250;28;20091;-35
2022/08/01 03:09:35;;;;;;;1.30;1.20;;;;;;;29.55;32.85;96703.56;5097005;28;20020;-35
2022/08/01 03:12:04;;;;;;;4.60;1.40;;;;;;;29.57;32.72;96708.59;5096346;28;20020;-35
2022/08/01 03:14:34;;;;;;;1.20;1.10;;;;;;;29.59;33.05;96712.34;5096842;28;20030;-35
2022/08/01 03:17:00;;;;;;;1.27;1.17;;;;;;;29.57;32.64;96703.75;5096353;28;20063;-35
2022/08/01 03:19:28;;;;;;;1.10;1.00;;;;;;;29.55;33.00;96706.34;5096139;28;20028;-35
2022/08/01 03:21:58;;;;;;;1.33;1.20;;;;;;;29.59;32.71;96706.00;5085386;28;20417;-35
2022/08/01 03:24:25;;;;;;;2.35;1.30;;;;;;;29.56;32.84;96707.09;5076261;28;20055;-35
2022/08/01 03:26:52;;;;;;;1.20;1.10;;;;;;;29.56;32.87;96713.44;5075810;28;20024;-35
2022/08/01 03:29:24;;;;;;;1.95;1.27;;;;;;;29.56;32.69;96704.31;5075532;28;20071;-35
2022/08/01 03:31:50;;;;;;;1.40;1.30;;;;;;;29.59;32.71;96706.75;5076055;28;20034;-35
2022/08/01 03:34:16;;;;;;;1.48;1.38;;;;;;;29.57;32.80;96712.16;5075535;28;20260;-35
2022/08/01 03:36:46;;;;;;;2.55;1.17;;;;;;;29.56;32.83;96707.84;5076055;28;20059;-35
2022/08/01 03:39:14;;;;;;;1.20;1.10;;;;;;;29.53;32.66;96711.75;5075543;28;20119;-35
2022/08/01 03:41:43;;;;;;;2.20;1.40;;;;;;;29.52;32.75;96704.66;5075618;28;20383;-35
2022/08/01 03:44:17;;;;;;;1.67;1.58;;;;;;;29.50;32.75;96701.66;5075817;28;20039;-35
2022/08/01 03:46:56;;;;;;;1.40;1.30;;;;;;;29.54;32.73;96701.34;5075317;28;20044;-35
2022/08/01 03:49:25;;;;;;;1.63;1.17;;;;;;;29.53;32.88;96700.59;5075317;28;20457;-35
2022/08/01 03:51:52;;;;;;;1.58;1.30;;;;;;;29.53;32.93;96702.63;5075648;28;20028;-35
2022/08/01 03:54:23;;;;;;;1.00;1.00;;;;;;;29.52;32.83;96704.66;5075250;28;20098;-35
2022/08/01 03:56:51;;;;;;;1.30;1.20;;;;;;;29.55;32.72;96706.34;5075532;28;20021;-35
2022/08/01 03:59:18;;;;;;;1.77;1.40;;;;;;;29.53;32.96;96708.97;5075634;28;20020;-35
2022/08/01 04:01:45;;;;;;;1.80;1.08;;;;;;;29.50;32.83;96712.84;5075168;28;20031;-36
2022/08/01 04:04:12;;;;;;;1.35;1.25;;;;;;;29.51;32.81;96713.59;5074439;28;20025;-35
2022/08/01 04:06:43;;;;;;;1.77;1.10;;;;;;;29.50;33.03;96715.63;5073284;28;20038;-35
2022/08/01 04:09:10;;;;;;;1.17;1.08;;;;;;;29.48;32.99;96715.44;5075277;28;20025;-35
2022/08/01 04:11:36;;;;;;;1.85;1.10;;;;;;;29.50;32.90;96718.44;5074947;28;20029;-36
2022/08/01 04:14:03;;;;;;;1.40;1.30;;;;;;;29.50;33.01;96717.69;5074898;28;20020;-35
2022/08/01 04:16:28;;;;;;;1.40;1.30;;;;;;;29.50;32.93;96712.84;5074817;28;20031;-35
2022/08/01 04:18:54;;;;;;;2.35;1.10;;;;;;;29.52;32.79;96718.63;5074963;28;20029;-35
2022/08/01 04:21:24;;;;;;;1.20;1.10;;;;;;;29.53;33.04;96714.56;5074980;28;20115;-35
2022/08/01 04:23:52;;;;;;;1.38;1.17;;;;;;;29.50;32.98;96721.22;5074744;28;20123;-35
2022/08/01 04:26:21;;;;;;;1.30;1.20;;;;;;;29.51;33.04;96717.13;5074829;28;20425;-35
2022/08/01 04:28:51;;;;;;;1.60;1.40;;;;;;;29.48;33.08;96714.69;5074805;28;20557;-35
2022/08/01 04:31:18;;;;;;;1.45;1.23;;;;;;;29.49;32.92;96718.97;5073164;28;20458;-36
2022/08/01 04:33:49;;;;;;;1.38;1.23;;;;;;;29.49;33.11;96716.19;5074869;28;20358;-35
2022/08/01 04:36:17;;;;;;;1.45;1.15;;;;;;;29.51;33.10;96722.72;5074659;28;20421;-35
2022/08/01 04:38:47;;;;;;;1.27;1.17;;;;;;;29.47;32.96;96719.53;5074372;28;20027;-35
2022/08/01 04:41:15;;;;;;;1.65;1.55;;;;;;;29.48;33.11;96726.59;5074419;28;20478;-35
2022/08/01 04:43:41;;;;;;;2.00;1.27;;;;;;;29.47;33.32;96729.94;5073360;28;20032;-35
2022/08/01 04:46:07;;;;;;;2.53;1.30;;;;;;;29.44;33.19;96723.41;5072639;28;20398;-35
2022/08/01 04:48:35;;;;;;;1.90;1.25;;;;;;;29.45;32.77;96721.34;5072943;28;20024;-35
2022/08/01 04:51:01;;;;;;;2.08;1.88;;;;;;;29.49;33.02;96735.75;5092083;28;20079;-35
2022/08/01 04:53:27;;;;;;;1.17;1.08;;;;;;;29.47;32.82;96736.28;5093028;28;20059;-35
2022/08/01 04:55:53;;;;;;;1.40;1.30;;;;;;;29.47;32.67;96739.09;5092712;28;20028;-35
2022/08/01 04:58:19;;;;;;;1.45;1.20;;;;;;;29.46;32.93;96740.38;5091371;28;20035;-35
2022/08/01 05:00:46;;;;;;;2.20;1.40;;;;;;;29.47;33.09;96727.91;5092762;28;20081;-36
2022/08/01 05:03:11;;;;;;;1.27;1.15;;;;;;;29.50;33.03;96734.44;5092964;28;20024;-35
2022/08/01 05:05:37;;;;;;;1.88;1.25;;;;;;;29.47;33.09;96738.34;5092838;28;20031;-35
2022/08/01 05:08:02;;;;;;;1.15;1.05;;;;;;;29.47;33.04;96741.88;5092691;28;20509;-35
2022/08/01 05:10:28;;;;;;;1.35;0.98;;;;;;;29.43;33.06;96730.28;5092651;28;20028;-35
2022/08/01 05:12:53;;;;;;;1.63;1.27;;;;;;;29.44;33.20;96736.63;5092591;28;20059;-36
2022/08/01 05:15:19;;;;;;;1.50;1.35;;;;;;;29.47;33.30;96741.88;5092566;28;20035;-35
2022/08/01 05:17:44;;;;;;;1.23;1.13;;;;;;;29.47;32.83;96747.47;5092063;28;20412;-35
2022/08/01 05:20:11;;;;;;;1.40;1.30;;;;;;;29.47;33.15;96744.66;5092452;28;20473;-35
2022/08/01 05:22:37;;;;;;;1.55;1.20;;;;;;;29.42;32.88;96742.03;5092657;28;20411;-35
2022/08/01 05:25:04;;;;;;;1.45;1.30;;;;;;;29.43;33.20;96746.28;5092419;28;20060;-35
2022/08/01 05:27:46;;;;;;;2.15;1.17;;;;;;;29.48;32.79;96745.41;5092512;28;20016;-35
2022/08/01 05:30:12;;;;;;;2.47;1.20;;;;;;;29.42;33.13;96756.75;5090345;28;20040;-35
2022/08/01 05:32:37;;;;;;;2.03;1.40;;;;;;;29.42;33.02;96756.00;5092349;28;20030;-35
2022/08/01 05:35:03;;;;;;;1.67;1.35;;;;;;;29.43;32.88;96758.22;5092408;28;20023;-34
2022/08/01 05:37:29;;;;;;;1.20;1.10;;;;;;;29.39;33.16;96762.66;5092214;28;20114;-36
2022/08/01 05:39:54;;;;;;;1.23;1.10;;;;;;;29.42;32.91;96762.34;5092236;28;20020;-35
2022/08/01 05:42:20;;;;;;;2.17;1.30;;;;;;;29.44;32.85;96762.53;5092080;28;20381;-35
2022/08/01 05:44:45;;;;;;;1.50;1.33;;;;;;;29.45;32.84;96761.22;5091735;28;20370;-35
2022/08/01 05:47:11;;;;;;;1.25;1.15;;;;;;;29.35;32.90;96759.44;5092186;28;20031;-35
2022/08/01 05:49:36;;;;;;;1.70;1.27;;;;;;;29.40;32.93;96764.91;5091952;28;20035;-36
2022/08/01 05:52:02;;;;;;;1.40;1.23;;;;;;;29.43;32.82;96766.59;5092109;28;20016;-35
2022/08/01 05:54:27;;;;;;;1.30;1.20;;;;;;;29.44;33.01;96770.91;5092071;28;20024;-35
2022/08/01 05:56:54;;;;;;;0.98;0.98;;;;;;;29.38;33.12;96766.75;5090441;28;20500;-35
2022/08/01 05:59:20;;;;;;;1.55;1.27;;;;;;;29.38;32.58;96778.69;5091961;28;20035;-35
2022/08/01 06:01:45;;;;;;;1.30;1.20;;;;;;;29.25;32.64;96775.91;5091985;28;20019;-35
2022/08/01 06:04:11;;;;;;;1.38;1.08;;;;;;;29.36;32.95;96770.06;5091852;28;20024;-35
2022/08/01 06:06:36;;;;;;;2.10;1.38;;;;;;;29.38;33.02;96775.88;5092090;28;20020;-35
2022/08/01 06:09:02;;;;;;;1.40;1.30;;;;;;;29.42;32.90;96776.31;5091662;28;20029;-35
2022/08/01 06:11:27;;;;;;;1.30;1.15;;;;;;;29.40;32.83;96783.72;5091613;28;20158;-35
2022/08/01 06:13:53;;;;;;;2.25;1.27;;;;;;;29.41;33.04;96774.06;5092032;28;20024;-35
2022/08/01 06:16:19;;;;;;;1.15;1.05;;;;;;;29.41;32.79;96785.22;5091873;28;20115;-35
2022/08/01 06:18:44;;;;;;;1.10;1.00;;;;;;;29.39;32.52;96785.78;5092074;28;20031;-36
2022/08/01 06:21:10;;;;;;;1.50;1.10;;;;;;;29.40;32.95;96786.53;5090355;28;20031;-35
2022/08/01 06:23:35;;;;;;;1.20;1.10;;;;;;;29.38;32.74;96789.84;5091865;28;20474;-35
2022/08/01 06:26:01;;;;;;;3.58;1.40;;;;;;;29.35;32.92;96790.91;5091806;28;20024;-35
2022/08/01 06:28:26;;;;;;;1.55;1.10;;;;;;;29.36;32.80;96797.25;5093374;28;20150;-35
2022/08/01 06:30:53;;;;;;;1.25;1.13;;;;;;;29.31;32.41;96796.06;5095921;28;20389;-34
2022/08/01 06:33:18;;;;;;;1.58;1.00;;;;;;;29.24;32.73;96791.94;5095607;28;20381;-35
2022/08/01 06:35:44;;;;;;;1.88;1.23;;;;;;;29.25;32.56;96801.06;5095386;28;20119;-35
2022/08/01 06:38:09;;;;;;;1.30;1.20;;;;;;;29.25;32.57;96809.44;5095573;28;20027;-35
2022/08/01 06:40:35;;;;;;;1.35;1.25;;;;;;;29.23;32.96;96807.19;5095496;28;20055;-35
2022/08/01 06:43:00;;;;;;;2.22;1.05;;;;;;;29.31;32.98;96804.47;5095437;28;20030;-35
2022/08/01 06:45:26;;;;;;;1.33;1.23;;;;;;;29.15;32.07;96800.03;5095075;28;20127;-35
2022/08/01 06:47:52;;;;;;;1.30;1.20;;;;;;;29.22;32.86;96807.72;5095511;28;20107;-36
2022/08/01 06:50:18;;;;;;;1.20;1.10;;;;;;;29.16;33.10;96812.69;5095502;28;20024;-35
2022/08/01 06:52:44;;;;;;;1.13;1.00;;;;;;;29.20;32.68;96807.50;5095006;28;20043;-35
2022/08/01 06:55:10;;;;;;;1.75;1.30;;;;;;;28.98;32.91;96813.59;5086944;28;20038;-35
2022/08/01 06:57:35;;;;;;;1.30;1.17;;;;;;;29.03;32.71;96815.53;5087033;28;20382;-36
2022/08/01 07:00:07;;;;;;;1.60;1.13;;;;;;;29.25;32.42;96815.03;5084641;28;20868;-37
2022/08/01 07:02:32;;;;;;;1.30;1.10;;;;;;;29.17;32.76;96819.78;5095037;28;20067;-35
2022/08/01 07:05:00;;;;;;;2.28;1.17;;;;;;;29.26;32.52;96816.53;5095442;28;20051;-36
2022/08/01 07:07:26;;;;;;;1.60;1.10;;;;;;;29.17;32.56;96819.78;5094724;28;20445;-35
2022/08/01 07:09:52;;;;;;;2.50;1.10;;;;;;;29.24;32.69;96819.09;5094754;28;20100;-34
2022/08/01 07:12:17;;;;;;;1.70;1.17;;;;;;;29.12;33.14;96823.44;5094885;28;20450;-35
2022/08/01 07:14:43;;;;;;;1.70;1.30;;;;;;;29.20;32.97;96818.69;5094998;28;20020;-35
2022/08/01 07:17:08;;;;;;;1.20;1.10;;;;;;;29.23;33.04;96828.78;5094869;28;20023;-35
2022/08/01 07:19:33;;;;;;;1.30;1.20;;;;;;;29.28;32.68;96820.28;5094399;28;20028;-35
2022/08/01 07:21:59;;;;;;;1.77;1.20;;;;;;;29.26;32.90;96825.66;5095008;28;20489;-35
2022/08/01 07:24:24;;;;;;;1.50;1.40;;;;;;;29.25;32.99;96820.63;5094510;28;20046;-35
2022/08/01 07:26:50;;;;;;;1.33;1.23;;;;;;;29.20;33.01;96815.88;5084283;28;20024;-35
2022/08/01 07:29:15;;;;;;;1.15;1.05;;;;;;;28.98;33.61;96814.34;5075552;28;20031;-35
2022/08/01 07:31:41;;;;;;;2.42;1.20;;;;;;;28.33;34.42;96818.69;5075959;28;20075;-34
2022/08/01 07:34:07;;;;;;;1.50;1.38;;;;;;;28.82;33.84;96824.56;5075490;28;20052;-35
2022/08/01 07:36:33;;;;;;;3.55;1.50;;;;;;;28.99;33.58;96810.28;5075154;28;20389;-34
2022/08/01 07:38:58;;;;;;;2.15;1.25;;;;;;;29.05;33.37;96812.94;5075130;28;20114;-34
2022/08/01 07:41:23;;;;;;;2.55;1.33;;;;;;;29.13;33.48;96810.97;5075701;28;20063;-34
2022/08/01 07:43:49;;;;;;;2.35;1.38;;;;;;;28.83;33.61;96816.97;5075588;28;20451;-34
2022/08/01 07:46:15;;;;;;;2.75;1.40;;;;;;;28.85;33.71;96817.91;5075192;28;20049;-34
2022/08/01 07:48:41;;;;;;;1.90;1.42;;;;;;;28.92;33.22;96814.50;5075677;28;20108;-34
2022/08/01 07:51:08;;;;;;;1.50;1.30;;;;;;;28.98;33.40;96813.59;5075336;28;20020;-34
2022/08/01 07:53:34;;;;;;;1.88;1.15;;;;;;;28.85;33.37;96819.97;5075583;28;20024;-36
2022/08/01 07:56:02;;;;;;;1.83;1.10;;;;;;;28.92;33.58;96820.06;5075568;28;20447;-34
2022/08/01 07:58:27;;;;;;;1.38;1.27;;;;;;;29.03;33.25;96818.31;5075185;28;20055;-34
2022/08/01 08:00:53;;;;;;;2.85;1.48;;;;;;;28.98;33.50;96813.59;5075192;28;20064;-36
2022/08/01 08:03:18;;;;;;;2.47;1.58;;;;;;;29.13;33.31;96814.53;5075170;28;20031;-34
2022/08/01 08:05:44;;;;;;;3.47;1.70;;;;;;;29.16;33.36;96818.28;5075042;28;20039;-34
2022/08/01 08:08:13;;;;;;;1.58;1.48;;;;;;;29.24;33.20;96813.53;5074804;28;20425;-34
2022/08/01 08:10:39;;;;;;;1.83;1.48;;;;;;;28.59;31.95;96812.34;5075100;28;20055;-34
2022/08/01 08:13:04;;;;;;;1.40;1.30;;;;;;;28.56;33.60;96811.38;5074945;28;20064;-34
2022/08/01 08:15:30;;;;;;;1.40;1.30;;;;;;;28.92;33.17;96814.50;5075257;28;20016;-34
2022/08/01 08:17:55;;;;;;;2.42;1.40;;;;;;;29.01;33.01;96809.72;5074869;28;20508;-35
2022/08/01 08:20:24;;;;;;;1.30;1.20;;;;;;;28.87;33.13;96812.56;5074843;28;20021;-35
2022/08/01 08:22:51;;;;;;;1.60;1.40;;;;;;;28.51;31.94;96815.06;5074613;28;20035;-34
2022/08/01 08:25:18;;;;;;;1.88;1.17;;;;;;;28.60;33.13;96814.59;5075036;28;20031;-35
2022/08/01 08:27:44;;;;;;;1.90;1.30;;;;;;;28.80;32.92;96815.25;5074475;28;20382;-34
2022/08/01 08:30:11;;;;;;;1.58;1.17;;;;;;;28.68;32.60;96814.72;5074762;28;20020;-35
2022/08/01 08:32:37;;;;;;;2.22;1.30;;;;;;;28.48;33.76;96824.50;5074567;28;20543;-35
2022/08/01 08:35:03;;;;;;;1.33;1.10;;;;;;;28.47;33.01;96825.03;5078342;28;20110;-35
2022/08/01 08:37:29;;;;;;;1.67;1.40;;;;;;;28.82;32.49;96832.94;5074977;28;20098;-34
2022/08/01 08:39:54;;;;;;;1.20;1.10;;;;;;;28.54;33.15;96829.97;5075885;28;20078;-34
2022/08/01 08:42:20;;;;;;;1.25;1.15;;;;;;;28.65;32.12;96832.53;5084892;28;20020;-34
2022/08/01 08:44:45;;;;;;;2.17;1.20;;;;;;;28.76;32.64;96826.72;5094243;28;20024;-35
2022/08/01 08:47:13;;;;;;;1.13;1.02;;;;;;;29.01;32.53;96832.06;5094230;28;20020;-35
2022/08/01 08:49:39;;;;;;;1.15;1.00;;;;;;;28.82;31.90;96832.94;5094475;28;20028;-35
2022/08/01 08:52:04;;;;;;;3.67;1.35;;;;;;;28.69;30.03;96837.78;5093776;28;20085;-34
2022/08/01 08:54:31;;;;;;;3.15;1.20;;;;;;;28.62;31.50;96833.59;5094744;28;20115;-34
2022/08/01 08:56:58;;;;;;;1.70;1.33;;;;;;;28.89;31.19;96837.91;5094542;28;20024;-35
2022/08/01 08:59:24;;;;;;;1.20;1.10;;;;;;;28.62;31.20;96839.19;5094252;28;20012;-35
2022/08/01 09:01:50;;;;;;;2.00;1.05;;;;;;;28.86;31.87;96838.97;5094325;28;20099;-34
2022/08/01 09:04:16;;;;;;;1.60;1.48;;;;;;;28.89;32.09;96849.06;5094344;28;20400;-34
2022/08/01 09:06:42;;;;;;;1.45;1.10;;;;;;;29.19;31.45;96851.44;5094256;28;20490;-34
2022/08/01 09:09:08;;;;;;;2.25;1.15;;;;;;;29.05;31.24;96846.47;5093992;28;20063;-34
2022/08/01 09:11:34;;;;;;;1.38;1.27;;;;;;;29.02;31.02;96847.53;5094019;28;20073;-35
2022/08/01 09:14:23;;;;;;;1.40;1.30;;;;;;;29.22;31.18;96844.03;5094337;28;20470;-34
2022/08/01 09:17:00;;;;;;;1.95;1.20;;;;;;;29.21;30.66;96842.53;5080916;28;20028;-35
2022/08/01 09:19:42;;;;;;;2.00;1.33;;;;;;;29.14;30.64;96843.97;5073691;28;20077;-35
2022/08/01 09:22:10;;;;;;;1.75;1.20;;;;;;;29.07;30.86;96839.03;5073792;28;20028;-34
2022/08/01 09:24:36;;;;;;;2.50;1.02;;;;;;;29.15;30.89;96844.72;5074672;28;20078;-35
2022/08/01 09:27:17;;;;;;;1.40;1.30;;;;;;;29.13;30.58;96842.47;5087744;28;20023;-35
2022/08/01 09:29:44;;;;;;;1.45;1.35;;;;;;;29.23;30.64;96835.13;5092834;28;20032;-35
2022/08/01 09:32:10;;;;;;;1.50;1.40;;;;;;;29.27;30.80;96837.59;5093551;28;20023;-35
2022/08/01 09:34:35;;;;;;;1.77;1.13;;;;;;;29.24;30.68;96845.00;5093644;28;20024;-35
2022/08/01 09:37:02;;;;;;;1.30;1.20;;;;;;;29.30;30.72;96842.81;5093812;28;20030;-34
2022/08/01 09:39:42;;;;;;;1.45;1.13;;;;;;;29.31;30.65;96840.78;5093511;28;20373;-34
2022/08/01 09:42:25;;;;;;;1.45;1.08;;;;;;;29.27;30.44;96835.53;5093668;28;20024;-35
2022/08/01 09:44:51;;;;;;;0.98;0.90;;;;;;;29.29;30.64;96832.22;5093641;28;20048;-34
2022/08/01 09:47:20;;;;;;;1.83;1.30;;;;;;;29.27;30.98;96832.00;5093656;28;20032;-34
2022/08/01 09:49:53;;;;;;;1.15;1.05;;;;;;;29.31;30.21;96829.59;5093626;28;20026;-34
2022/08/01 09:52:28;;;;;;;2.30;1.10;;;;;;;29.25;30.71;96829.00;5093551;28;20077;-35
2022/08/01 09:55:00;;;;;;;1.65;1.15;;;;;;;29.34;30.55;96828.53;5092444;28;20470;-35
2022/08/01 09:57:26;;;;;;;1.00;1.00;;;;;;;29.34;30.19;96830.56;5093437;28;20051;-34
2022/08/01 09:59:54;;;;;;;1.23;1.02;;;;;;;29.37;30.19;96829.47;5093400;28;20028;-34
2022/08/01 10:02:46;;;;;;;2.75;1.30;;;;;;;29.43;29.88;96827.31;5094697;28;20060;-34
2022/08/01 10:05:11;;;;;;;1.33;1.23;;;;;;;29.35;29.43;96826.47;5096441;28;20040;-35
2022/08/01 10:08:03;;;;;;;3.20;1.00;;;;;;;29.36;29.92;96816.81;5097387;28;20078;-36
2022/08/01 10:10:29;;;;;;;1.20;1.10;;;;;;;29.33;29.77;96817.88;5097499;28;20077;-34
2022/08/01 10:12:57;;;;;;;1.27;1.10;;;;;;;29.40;29.58;96820.81;5096986;28;20039;-35
2022/08/01 10:15:23;;;;;;;2.38;1.40;;;;;;;29.34;29.93;96822.94;5097275;28;20103;-34
2022/08/01 10:17:57;;;;;;;1.42;1.02;;;;;;;29.38;29.43;96814.25;5090295;28;20072;-34
2022/08/01 10:20:33;;;;;;;1.30;1.10;;;;;;;29.40;29.52;96812.41;5089662;28;20032;-35
2022/08/01 10:23:01;;;;;;;2.03;1.10;;;;;;;29.43;29.29;96819.69;5093656;28;20035;-35
2022/08/01 10:25:29;;;;;;;1.63;1.13;;;;;;;29.43;29.23;96808.50;5075525;28;20501;-36
2022/08/01 10:27:56;;;;;;;1.17;1.02;;;;;;;29.47;29.19;96814.53;5075392;28;20115;-36
2022/08/01 10:30:22;;;;;;;1.30;1.20;;;;;;;29.43;28.83;96808.50;5075156;28;20378;-34
2022/08/01 10:32:48;;;;;;;1.10;0.90;;;;;;;29.43;28.82;96804.97;5075299;28;20036;-35
2022/08/01 10:35:17;;;;;;;1.75;0.80;;;;;;;29.39;28.24;96807.38;5076159;28;20030;-35
2022/08/01 10:37:46;;;;;;;1.75;1.00;;;;;;;29.43;28.14;96805.72;5095720;28;20024;-35
2022/08/01 10:40:13;;;;;;;1.10;0.90;;;;;;;29.51;28.87;96800.22;5095216;28;20119;-35
2022/08/01 10:42:43;;;;;;;1.35;1.25;;;;;;;29.50;28.17;96796.69;5094925;28;20530;-35
2022/08/01 10:45:11;;;;;;;1.50;0.98;;;;;;;29.42;27.76;96783.94;5094080;28;20052;-34
2022/08/01 10:47:53;;;;;;;0.93;0.80;;;;;;;29.47;27.98;96788.63;5094920;28;20059;-35
2022/08/01 10:50:31;;;;;;;0.80;0.80;;;;;;;29.51;28.11;96783.47;5095425;28;20024;-35
2022/08/01 10:53:15;;;;;;;1.50;0.90;;;;;;;29.48;28.18;96782.50;5095170;28;20024;-36
2022/08/01 10:55:56;;;;;;;1.25;1.00;;;;;;;29.48;28.60;96785.28;5096726;28;20024;-35
2022/08/01 10:58:32;;;;;;;1.00;0.90;;;;;;;29.53;27.33;96778.81;5096143;28;20369;-35
2022/08/01 11:01:24;;;;;;;1.15;0.90;;;;;;;29.53;27.18;96783.66;5096594;28;20473;-35
2022/08/01 11:04:00;;;;;;;0.80;0.70;;;;;;;29.58;27.88;96777.16;5096574;28;20035;-34
2022/08/01 11:06:42;;;;;;;0.88;0.70;;;;;;;29.53;27.74;96769.69;5096000;28;20024;-34
2022/08/01 11:09:11;;;;;;;0.80;0.80;;;;;;;29.52;28.17;96766.16;5096417;28;20024;-35
2022/08/01 11:12:02;;;;;;;1.05;0.80;;;;;;;29.48;28.09;96768.53;5094964;28;20066;-35
2022/08/01 11:14:29;;;;;;;0.80;0.80;;;;;;;29.49;27.87;96767.22;5095563;28;20031;-35
2022/08/01 11:17:33;;;;;;;1.25;1.10;;;;;;;29.52;27.33;96760.56;5096149;28;20028;-34
2022/08/01 11:20:11;;;;;;;1.20;0.77;;;;;;;29.55;27.26;96758.72;5096223;28;20542;-35
2022/08/01 11:22:59;;;;;;;4.43;0.90;;;;;;;29.56;27.09;96765.78;5096037;28;20444;-35
2022/08/01 11:25:47;;;;;;;2.17;0.90;;;;;;;29.52;27.02;96763.34;5092837;28;20032;-35
2022/08/01 11:28:23;;;;;;;1.08;0.90;;;;;;;29.51;27.01;96753.47;5091902;28;20064;-36
2022/08/01 11:30:50;;;;;;;2.60;0.85;;;;;;;29.57;27.03;96744.94;5096324;28;20055;-34
2022/08/01 11:33:19;;;;;;;2.58;0.88;;;;;;;29.47;26.91;96747.47;5095932;28;20055;-34
2022/08/01 11:36:12;;;;;;;1.63;0.82;;;;;;;29.46;27.44;96743.16;5096018;28;20558;-35
2022/08/01 11:38:37;;;;;;;;;;;;;;;29.51;27.39;96747.13;5096319;28;20024;-35
2022/08/01 11:41:10;;;;;;;1.30;0.80;;;;;;;29.50;26.89;96743.59;5095767;28;20427;-36
2022/08/01 11:43:53;;;;;;;1.50;0.90;;;;;;;29.44;27.20;96747.78;5095797;28;20385;-34